sensor_id;sensor_type;location;lat;lon;timestamp;pressure;altitude;pressure_sealevel;temperature;humidity
63819;BME280;49970;54.976;73.248;2023-06-04T00:01:44;100714.84;;;23.28;53.44
63819;BME280;49970;54.976;73.248;2023-06-04T00:04:11;100708.78;;;23.26;54.31
63819;BME280;49970;54.976;73.248;2023-06-04T00:06:38;100711.69;;;23.24;55.10
63819;BME280;49970;54.976;73.248;2023-06-04T00:09:04;100715.22;;;23.25;51.77
63819;BME280;49970;54.976;73.248;2023-06-04T00:11:30;100713.47;;;23.32;53.73
63819;BME280;49970;54.976;73.248;2023-06-04T00:14:00;100713.94;;;23.35;54.79
63819;BME280;49970;54.976;73.248;2023-06-04T00:16:26;100708.88;;;23.32;55.59
63819;BME280;49970;54.976;73.248;2023-06-04T00:18:52;100711.78;;;23.31;56.82
63819;BME280;49970;54.976;73.248;2023-06-04T00:21:19;100714.28;;;23.32;57.23
63819;BME280;49970;54.976;73.248;2023-06-04T00:23:46;100714.28;;;23.32;57.43
63819;BME280;49970;54.976;73.248;2023-06-04T00:26:12;100709.91;;;23.31;56.36
63819;BME280;49970;54.976;73.248;2023-06-04T00:28:42;100711.78;;;23.31;56.54
63819;BME280;49970;54.976;73.248;2023-06-04T00:31:09;100706.88;;;23.34;57.66
63819;BME280;49970;54.976;73.248;2023-06-04T00:33:36;100712.56;;;23.40;58.01
63819;BME280;49970;54.976;73.248;2023-06-04T00:36:02;100709.28;;;23.44;57.46
63819;BME280;49970;54.976;73.248;2023-06-04T00:38:28;100708.38;;;23.52;56.96
63819;BME280;49970;54.976;73.248;2023-06-04T00:40:55;100714.06;;;23.57;58.15
63819;BME280;49970;54.976;73.248;2023-06-04T00:43:21;100714.38;;;23.62;55.02
63819;BME280;49970;54.976;73.248;2023-06-04T00:45:52;100720.19;;;23.74;54.48
63819;BME280;49970;54.976;73.248;2023-06-04T00:48:19;100720.78;;;23.84;53.69
63819;BME280;49970;54.976;73.248;2023-06-04T00:50:47;100721.31;;;23.94;53.67
63819;BME280;49970;54.976;73.248;2023-06-04T00:53:14;100718.91;;;23.99;55.56
63819;BME280;49970;54.976;73.248;2023-06-04T00:55:41;100722.91;;;24.03;57.23
63819;BME280;49970;54.976;73.248;2023-06-04T00:58:07;100724.22;;;24.07;56.81
63819;BME280;49970;54.976;73.248;2023-06-04T01:00:36;100729.09;;;24.12;56.95
63819;BME280;49970;54.976;73.248;2023-06-04T01:03:07;100729.84;;;24.21;54.51
63819;BME280;49970;54.976;73.248;2023-06-04T01:05:38;100720.75;;;24.28;54.13
63819;BME280;49970;54.976;73.248;2023-06-04T01:08:06;100727.94;;;24.36;53.14
63819;BME280;49970;54.976;73.248;2023-06-04T01:10:35;100718.69;;;24.45;52.40
63819;BME280;49970;54.976;73.248;2023-06-04T01:13:01;100719.25;;;24.55;51.97
63819;BME280;49970;54.976;73.248;2023-06-04T01:15:27;100718.31;;;24.63;51.62
63819;BME280;49970;54.976;73.248;2023-06-04T01:17:59;100719.66;;;24.74;50.94
63819;BME280;49970;54.976;73.248;2023-06-04T01:20:40;100722.81;;;24.77;51.24
63819;BME280;49970;54.976;73.248;2023-06-04T01:25:42;100716.25;;;24.87;51.01
63819;BME280;49970;54.976;73.248;2023-06-04T01:28:11;100719.75;;;25.02;50.73
63819;BME280;49970;54.976;73.248;2023-06-04T01:30:40;100723.00;;;25.12;50.63
63819;BME280;49970;54.976;73.248;2023-06-04T01:33:13;100724.94;;;25.18;51.65
63819;BME280;49970;54.976;73.248;2023-06-04T01:35:40;100731.28;;;25.25;51.14
63819;BME280;49970;54.976;73.248;2023-06-04T01:38:07;100722.78;;;25.35;49.71
63819;BME280;49970;54.976;73.248;2023-06-04T01:40:33;100724.53;;;25.43;51.66
63819;BME280;49970;54.976;73.248;2023-06-04T01:43:00;100727.94;;;25.51;49.53
63819;BME280;49970;54.976;73.248;2023-06-04T01:45:27;100729.84;;;25.57;52.04
63819;BME280;49970;54.976;73.248;2023-06-04T01:47:54;100721.34;;;25.61;52.43
63819;BME280;49970;54.976;73.248;2023-06-04T01:50:21;100732.88;;;25.69;50.05
63819;BME280;49970;54.976;73.248;2023-06-04T01:52:47;100733.19;;;25.81;50.67
63819;BME280;49970;54.976;73.248;2023-06-04T01:55:15;100732.22;;;25.89;49.33
63819;BME280;49970;54.976;73.248;2023-06-04T01:57:43;100736.03;;;26.01;49.12
63819;BME280;49970;54.976;73.248;2023-06-04T02:00:13;100741.56;;;26.21;48.50
63819;BME280;49970;54.976;73.248;2023-06-04T02:02:42;100737.97;;;26.48;47.70
63819;BME280;49970;54.976;73.248;2023-06-04T02:05:09;100743.50;;;26.68;46.47
63819;BME280;49970;54.976;73.248;2023-06-04T02:07:41;100747.09;;;26.89;44.51
63819;BME280;49970;54.976;73.248;2023-06-04T02:10:10;100746.50;;;27.06;45.06
63819;BME280;49970;54.976;73.248;2023-06-04T02:12:37;100744.88;;;27.32;45.12
63819;BME280;49970;54.976;73.248;2023-06-04T02:15:05;100742.41;;;27.77;44.59
63819;BME280;49970;54.976;73.248;2023-06-04T02:17:31;100753.38;;;28.28;43.51
63819;BME280;49970;54.976;73.248;2023-06-04T02:19:58;100748.78;;;28.81;41.65
63819;BME280;49970;54.976;73.248;2023-06-04T02:22:25;100748.28;;;29.28;41.15
63819;BME280;49970;54.976;73.248;2023-06-04T02:24:51;100755.44;;;29.80;40.71
63819;BME280;49970;54.976;73.248;2023-06-04T02:27:18;100752.47;;;30.24;40.87
63819;BME280;49970;54.976;73.248;2023-06-04T02:29:44;100754.03;;;30.69;39.58
63819;BME280;49970;54.976;73.248;2023-06-04T02:32:11;100749.91;;;31.08;39.57
63819;BME280;49970;54.976;73.248;2023-06-04T02:34:37;100757.53;;;31.48;39.76
63819;BME280;49970;54.976;73.248;2023-06-04T02:37:04;100748.59;;;31.64;37.76
63819;BME280;49970;54.976;73.248;2023-06-04T02:39:35;100758.25;;;31.79;37.68
63819;BME280;49970;54.976;73.248;2023-06-04T02:42:02;100759.81;;;31.74;38.13
63819;BME280;49970;54.976;73.248;2023-06-04T02:44:28;100755.41;;;31.62;38.20
63819;BME280;49970;54.976;73.248;2023-06-04T02:46:56;100751.56;;;31.51;37.86
63819;BME280;49970;54.976;73.248;2023-06-04T02:49:22;100753.59;;;31.44;38.24
63819;BME280;49970;54.976;73.248;2023-06-04T02:51:49;100749.31;;;31.36;37.88
63819;BME280;49970;54.976;73.248;2023-06-04T02:54:16;100749.31;;;31.36;37.59
63819;BME280;49970;54.976;73.248;2023-06-04T02:56:42;100752.41;;;31.40;38.13
63819;BME280;49970;54.976;73.248;2023-06-04T02:59:11;100748.13;;;31.44;38.39
63819;BME280;49970;54.976;73.248;2023-06-04T03:01:37;100743.13;;;31.53;38.42
63819;BME280;49970;54.976;73.248;2023-06-04T03:04:04;100743.25;;;31.58;38.78
63819;BME280;49970;54.976;73.248;2023-06-04T03:06:31;100745.28;;;31.62;38.46
63819;BME280;49970;54.976;73.248;2023-06-04T03:09:00;100746.59;;;31.71;38.90
63819;BME280;49970;54.976;73.248;2023-06-04T03:15:16;100740.88;;;31.73;38.11
63819;BME280;49970;54.976;73.248;2023-06-04T03:17:42;100738.13;;;31.61;38.46
63819;BME280;49970;54.976;73.248;2023-06-04T03:20:10;100738.13;;;31.61;37.74
63819;BME280;49970;54.976;73.248;2023-06-04T03:22:37;100735.88;;;31.70;38.14
63819;BME280;49970;54.976;73.248;2023-06-04T03:25:04;100736.50;;;31.84;37.37
63819;BME280;49970;54.976;73.248;2023-06-04T03:27:32;100739.34;;;31.89;38.55
63819;BME280;49970;54.976;73.248;2023-06-04T03:29:58;100739.94;;;31.91;38.14
63819;BME280;49970;54.976;73.248;2023-06-04T03:32:45;100740.78;;;31.91;38.65
63819;BME280;49970;54.976;73.248;2023-06-04T03:35:31;100736.59;;;31.89;38.31
63819;BME280;49970;54.976;73.248;2023-06-04T03:37:57;100742.31;;;31.99;38.77
63819;BME280;49970;54.976;73.248;2023-06-04T03:40:23;100721.22;;;31.99;38.51
63819;BME280;49970;54.976;73.248;2023-06-04T03:42:50;100738.34;;;32.18;37.60
63819;BME280;49970;54.976;73.248;2023-06-04T03:45:18;100719.06;;;32.13;37.69
63819;BME280;49970;54.976;73.248;2023-06-04T03:47:45;100736.06;;;32.39;38.54
63819;BME280;49970;54.976;73.248;2023-06-04T03:50:12;100731.03;;;32.47;38.79
63819;BME280;49970;54.976;73.248;2023-06-04T03:52:38;100734.22;;;32.56;37.09
63819;BME280;49970;54.976;73.248;2023-06-04T03:55:06;100724.47;;;32.48;38.72
63819;BME280;49970;54.976;73.248;2023-06-04T03:57:34;100733.44;;;32.44;37.27
63819;BME280;49970;54.976;73.248;2023-06-04T04:00:03;100728.78;;;32.33;38.05
63819;BME280;49970;54.976;73.248;2023-06-04T04:06:09;100709.09;;;32.47;38.44
63819;BME280;49970;54.976;73.248;2023-06-04T04:08:37;100710.13;;;32.58;38.17
63819;BME280;49970;54.976;73.248;2023-06-04T04:11:08;100707.56;;;32.68;36.43
63819;BME280;49970;54.976;73.248;2023-06-04T04:13:34;100724.19;;;32.90;37.00
63819;BME280;49970;54.976;73.248;2023-06-04T04:16:21;100722.94;;;32.98;37.46
63819;BME280;49970;54.976;73.248;2023-06-04T04:19:52;100727.56;;;33.09;36.08
63819;BME280;49970;54.976;73.248;2023-06-04T04:22:23;100722.06;;;33.09;36.23
63819;BME280;49970;54.976;73.248;2023-06-04T04:24:50;100714.00;;;33.19;35.57
63819;BME280;49970;54.976;73.248;2023-06-04T04:27:17;100707.78;;;33.24;34.73
63819;BME280;49970;54.976;73.248;2023-06-04T04:29:43;100714.00;;;33.36;35.42
63819;BME280;49970;54.976;73.248;2023-06-04T04:32:11;100708.81;;;33.40;35.56
63819;BME280;49970;54.976;73.248;2023-06-04T04:34:49;100710.47;;;33.53;34.41
63819;BME280;49970;54.976;73.248;2023-06-04T04:37:19;100713.09;;;33.64;34.97
63819;BME280;49970;54.976;73.248;2023-06-04T04:39:49;100699.94;;;33.66;32.70
63819;BME280;49970;54.976;73.248;2023-06-04T04:42:21;100694.00;;;33.75;33.68
63819;BME280;49970;54.976;73.248;2023-06-04T04:44:49;100700.41;;;33.80;33.66
63819;BME280;49970;54.976;73.248;2023-06-04T04:47:18;100694.63;;;33.82;33.82
63819;BME280;49970;54.976;73.248;2023-06-04T04:49:45;100699.69;;;33.90;33.85
63819;BME280;49970;54.976;73.248;2023-06-04T04:52:11;100695.34;;;33.94;35.10
63819;BME280;49970;54.976;73.248;2023-06-04T04:54:40;100702.75;;;34.10;34.00
63819;BME280;49970;54.976;73.248;2023-06-04T04:57:07;100693.50;;;34.16;33.33
63819;BME280;49970;54.976;73.248;2023-06-04T04:59:35;100698.00;;;34.28;32.93
63819;BME280;49970;54.976;73.248;2023-06-04T05:02:02;100698.94;;;34.33;33.05
63819;BME280;49970;54.976;73.248;2023-06-04T05:04:29;100693.66;;;34.32;33.44
63819;BME280;49970;54.976;73.248;2023-06-04T05:06:56;100694.19;;;34.29;33.26
63819;BME280;49970;54.976;73.248;2023-06-04T05:09:23;100700.91;;;34.38;32.59
63819;BME280;49970;54.976;73.248;2023-06-04T05:11:50;100700.63;;;34.39;32.57
63819;BME280;49970;54.976;73.248;2023-06-04T05:14:17;100697.94;;;34.44;32.24
63819;BME280;49970;54.976;73.248;2023-06-04T05:16:44;100695.03;;;34.51;32.54
63819;BME280;49970;54.976;73.248;2023-06-04T05:19:12;100694.00;;;34.57;32.23
63819;BME280;49970;54.976;73.248;2023-06-04T05:21:40;100698.78;;;34.67;33.43
63819;BME280;49970;54.976;73.248;2023-06-04T05:24:06;100699.66;;;34.73;32.97
63819;BME280;49970;54.976;73.248;2023-06-04T05:26:37;100686.41;;;34.69;33.84
63819;BME280;49970;54.976;73.248;2023-06-04T05:29:12;100679.03;;;34.75;34.29
63819;BME280;49970;54.976;73.248;2023-06-04T05:31:42;100690.91;;;34.81;33.10
63819;BME280;49970;54.976;73.248;2023-06-04T05:34:11;100686.25;;;34.81;33.63
63819;BME280;49970;54.976;73.248;2023-06-04T05:36:43;100686.81;;;34.83;33.46
63819;BME280;49970;54.976;73.248;2023-06-04T05:39:16;100680.78;;;34.86;32.82
63819;BME280;49970;54.976;73.248;2023-06-04T05:42:04;100686.34;;;34.91;32.62
63819;BME280;49970;54.976;73.248;2023-06-04T05:44:33;100685.56;;;34.96;31.69
63819;BME280;49970;54.976;73.248;2023-06-04T05:47:00;100676.69;;;34.89;31.63
63819;BME280;49970;54.976;73.248;2023-06-04T05:49:27;100676.41;;;34.90;31.69
63819;BME280;49970;54.976;73.248;2023-06-04T05:51:56;100684.44;;;34.92;32.15
63819;BME280;49970;54.976;73.248;2023-06-04T05:54:23;100677.75;;;34.83;31.46
63819;BME280;49970;54.976;73.248;2023-06-04T05:56:50;100681.91;;;34.90;31.13
63819;BME280;49970;54.976;73.248;2023-06-04T05:59:17;100683.06;;;34.94;31.04
63819;BME280;49970;54.976;73.248;2023-06-04T06:01:43;100683.16;;;35.00;30.05
63819;BME280;49970;54.976;73.248;2023-06-04T06:04:09;100671.03;;;35.01;30.08
63819;BME280;49970;54.976;73.248;2023-06-04T06:06:36;100675.22;;;35.03;30.09
63819;BME280;49970;54.976;73.248;2023-06-04T06:09:03;100673.00;;;35.05;30.11
63819;BME280;49970;54.976;73.248;2023-06-04T06:11:30;100679.97;;;35.13;31.43
63819;BME280;49970;54.976;73.248;2023-06-04T06:13:57;100674.19;;;35.14;31.35
63819;BME280;49970;54.976;73.248;2023-06-04T06:16:23;100668.44;;;35.16;31.31
63819;BME280;49970;54.976;73.248;2023-06-04T06:18:49;100668.53;;;35.31;31.19
63819;BME280;49970;54.976;73.248;2023-06-04T06:21:16;100672.72;;;35.39;31.65
63819;BME280;49970;54.976;73.248;2023-06-04T06:23:42;100666.06;;;35.35;31.90
63819;BME280;49970;54.976;73.248;2023-06-04T06:26:09;100659.94;;;35.28;31.13
63819;BME280;49970;54.976;73.248;2023-06-04T06:28:42;100665.25;;;35.34;30.79
63819;BME280;49970;54.976;73.248;2023-06-04T06:31:09;100657.25;;;35.33;30.35
63819;BME280;49970;54.976;73.248;2023-06-04T06:33:36;100645.66;;;35.31;29.79
63819;BME280;49970;54.976;73.248;2023-06-04T06:36:10;100644.84;;;35.30;29.72
63819;BME280;49970;54.976;73.248;2023-06-04T06:38:39;100652.88;;;35.37;29.49
63819;BME280;49970;54.976;73.248;2023-06-04T06:41:06;100648.44;;;35.36;29.72
63819;BME280;49970;54.976;73.248;2023-06-04T06:43:32;100640.16;;;35.31;31.53
63819;BME280;49970;54.976;73.248;2023-06-04T06:45:59;100643.47;;;35.33;31.58
63819;BME280;49970;54.976;73.248;2023-06-04T06:48:25;100638.81;;;35.33;30.06
63819;BME280;49970;54.976;73.248;2023-06-04T06:50:51;100641.88;;;35.37;30.12
63819;BME280;49970;54.976;73.248;2023-06-04T06:53:17;100634.72;;;35.41;30.60
63819;BME280;49970;54.976;73.248;2023-06-04T06:55:44;100641.06;;;35.41;30.18
63819;BME280;49970;54.976;73.248;2023-06-04T06:58:10;100635.78;;;35.35;29.93
63819;BME280;49970;54.976;73.248;2023-06-04T07:00:36;100639.88;;;35.32;30.33
63819;BME280;49970;54.976;73.248;2023-06-04T07:03:14;100621.97;;;35.30;30.79
63819;BME280;49970;54.976;73.248;2023-06-04T07:05:41;100612.63;;;35.36;31.49
63819;BME280;49970;54.976;73.248;2023-06-04T07:08:07;100611.31;;;35.43;30.87
63819;BME280;49970;54.976;73.248;2023-06-04T07:10:33;100620.41;;;35.44;30.03
63819;BME280;49970;54.976;73.248;2023-06-04T07:12:59;100603.28;;;35.37;30.09
63819;BME280;49970;54.976;73.248;2023-06-04T07:15:45;100615.97;;;35.38;30.07
63819;BME280;49970;54.976;73.248;2023-06-04T07:19:36;100597.16;;;35.25;29.91
63819;BME280;49970;54.976;73.248;2023-06-04T07:27:16;100589.09;;;35.13;30.71
63819;BME280;49970;54.976;73.248;2023-06-04T07:30:02;100591.81;;;35.08;30.97
63819;BME280;49970;54.976;73.248;2023-06-04T07:32:30;100581.88;;;35.07;32.15
63819;BME280;49970;54.976;73.248;2023-06-04T07:34:56;100575.31;;;35.08;31.01
63819;BME280;49970;54.976;73.248;2023-06-04T07:37:22;100569.03;;;35.17;31.40
63819;BME280;49970;54.976;73.248;2023-06-04T07:39:48;100574.84;;;35.26;31.11
63819;BME280;49970;54.976;73.248;2023-06-04T07:42:15;100581.72;;;35.24;31.11
63819;BME280;49970;54.976;73.248;2023-06-04T07:44:41;100567.91;;;35.18;31.07
63819;BME280;49970;54.976;73.248;2023-06-04T07:47:07;100565.16;;;35.18;30.79
63819;BME280;49970;54.976;73.248;2023-06-04T07:49:33;100563.81;;;35.21;30.12
63819;BME280;49970;54.976;73.248;2023-06-04T07:52:00;100564.34;;;35.18;30.45
63819;BME280;49970;54.976;73.248;2023-06-04T07:54:26;100562.41;;;35.18;30.46
63819;BME280;49970;54.976;73.248;2023-06-04T07:56:52;100557.47;;;35.21;30.08
63819;BME280;49970;54.976;73.248;2023-06-04T07:59:24;100550.28;;;35.19;31.10
63819;BME280;49970;54.976;73.248;2023-06-04T08:01:53;100556.06;;;35.13;30.55
63819;BME280;49970;54.976;73.248;2023-06-04T08:04:19;100548.03;;;35.11;30.85
63819;BME280;49970;54.976;73.248;2023-06-04T08:06:46;100529.25;;;34.98;29.87
63819;BME280;49970;54.976;73.248;2023-06-04T08:09:12;100540.84;;;35.05;30.35
63819;BME280;49970;54.976;73.248;2023-06-04T08:11:41;100548.59;;;35.08;29.99
63819;BME280;49970;54.976;73.248;2023-06-04T08:14:12;100520.41;;;34.96;30.44
63819;BME280;49970;54.976;73.248;2023-06-04T08:16:39;100530.31;;;34.97;30.64
63819;BME280;49970;54.976;73.248;2023-06-04T08:19:06;100537.56;;;35.03;30.36
63819;BME280;49970;54.976;73.248;2023-06-04T08:21:33;100540.31;;;35.03;30.28
63819;BME280;49970;54.976;73.248;2023-06-04T08:24:00;100508.75;;;34.84;30.36
63819;BME280;49970;54.976;73.248;2023-06-04T08:26:26;100527.56;;;34.97;30.37
63819;BME280;49970;54.976;73.248;2023-06-04T08:28:53;100525.91;;;34.96;29.70
63819;BME280;49970;54.976;73.248;2023-06-04T08:31:19;100529.16;;;34.88;30.12
63819;BME280;49970;54.976;73.248;2023-06-04T08:33:46;100525.81;;;34.86;30.80
63819;BME280;49970;54.976;73.248;2023-06-04T08:36:12;100522.56;;;34.89;30.46
63819;BME280;49970;54.976;73.248;2023-06-04T08:38:38;100520.31;;;34.86;30.63
63819;BME280;49970;54.976;73.248;2023-06-04T08:43:55;100501.34;;;34.84;31.15
63819;BME280;49970;54.976;73.248;2023-06-04T08:46:23;100522.38;;;35.01;30.56
63819;BME280;49970;54.976;73.248;2023-06-04T08:48:50;100500.00;;;34.92;30.80
63819;BME280;49970;54.976;73.248;2023-06-04T08:51:16;100511.66;;;34.99;30.71
63819;BME280;49970;54.976;73.248;2023-06-04T08:53:43;100513.59;;;35.04;30.85
63819;BME280;49970;54.976;73.248;2023-06-04T08:56:13;100515.25;;;35.05;30.72
63819;BME280;49970;54.976;73.248;2023-06-04T08:58:40;100518.84;;;35.05;30.69
63819;BME280;49970;54.976;73.248;2023-06-04T09:01:07;100510.03;;;35.03;30.53
63819;BME280;49970;54.976;73.248;2023-06-04T09:03:42;100508.38;;;35.07;30.79
63819;BME280;49970;54.976;73.248;2023-06-04T09:06:09;100508.66;;;35.11;30.00
63819;BME280;49970;54.976;73.248;2023-06-04T09:08:37;100503.97;;;35.06;31.06
63819;BME280;49970;54.976;73.248;2023-06-04T09:11:10;100500.66;;;35.04;31.15
63819;BME280;49970;54.976;73.248;2023-06-04T09:13:38;100498.47;;;35.06;30.90
63819;BME280;49970;54.976;73.248;2023-06-04T09:16:05;100506.41;;;35.03;30.44
63819;BME280;49970;54.976;73.248;2023-06-04T09:18:32;100495.63;;;34.96;30.21
63819;BME280;49970;54.976;73.248;2023-06-04T09:21:08;100491.44;;;34.88;30.70
63819;BME280;49970;54.976;73.248;2023-06-04T09:23:45;100498.91;;;34.93;30.92
63819;BME280;49970;54.976;73.248;2023-06-04T09:26:11;100491.75;;;34.92;30.59
63819;BME280;49970;54.976;73.248;2023-06-04T09:28:41;100493.69;;;34.91;30.67
63819;BME280;49970;54.976;73.248;2023-06-04T09:31:09;100489.50;;;34.84;30.85
63819;BME280;49970;54.976;73.248;2023-06-04T09:33:50;100473.97;;;34.67;30.34
63819;BME280;49970;54.976;73.248;2023-06-04T09:36:17;100469.50;;;34.56;30.55
63819;BME280;49970;54.976;73.248;2023-06-04T09:38:43;100474.75;;;34.58;31.10
63819;BME280;49970;54.976;73.248;2023-06-04T09:41:16;100470.03;;;34.53;31.44
63819;BME280;49970;54.976;73.248;2023-06-04T09:43:43;100468.16;;;34.59;31.61
63819;BME280;49970;54.976;73.248;2023-06-04T09:46:17;100475.09;;;34.72;31.06
63819;BME280;49970;54.976;73.248;2023-06-04T09:48:44;100469.66;;;34.82;32.20
63819;BME280;49970;54.976;73.248;2023-06-04T09:51:12;100466.16;;;34.91;31.13
63819;BME280;49970;54.976;73.248;2023-06-04T09:53:39;100461.50;;;34.97;30.70
63819;BME280;49970;54.976;73.248;2023-06-04T09:56:06;100464.84;;;34.99;31.17
63819;BME280;49970;54.976;73.248;2023-06-04T09:58:34;100457.16;;;35.01;31.39
63819;BME280;49970;54.976;73.248;2023-06-04T10:01:05;100462.38;;;35.03;32.05
63819;BME280;49970;54.976;73.248;2023-06-04T10:14:44;100444.34;;;34.85;31.07
63819;BME280;49970;54.976;73.248;2023-06-04T10:17:12;100445.69;;;34.77;30.95
63819;BME280;49970;54.976;73.248;2023-06-04T10:19:42;100453.41;;;34.80;31.73
63819;BME280;49970;54.976;73.248;2023-06-04T10:22:09;100448.75;;;34.81;31.17
63819;BME280;49970;54.976;73.248;2023-06-04T10:24:38;100443.00;;;34.82;31.67
63819;BME280;49970;54.976;73.248;2023-06-04T10:27:06;100413.47;;;34.73;32.25
63819;BME280;49970;54.976;73.248;2023-06-04T10:29:37;100436.09;;;34.85;31.33
63819;BME280;49970;54.976;73.248;2023-06-04T10:32:04;100438.84;;;34.85;31.35
63819;BME280;49970;54.976;73.248;2023-06-04T10:34:31;100440.75;;;34.79;32.12
63819;BME280;49970;54.976;73.248;2023-06-04T10:40:33;100438.81;;;34.75;31.57
63819;BME280;49970;54.976;73.248;2023-06-04T10:43:05;100436.00;;;34.69;31.96
63819;BME280;49970;54.976;73.248;2023-06-04T10:45:32;100429.66;;;34.64;31.32
63819;BME280;49970;54.976;73.248;2023-06-04T10:48:05;100431.91;;;34.72;31.11
63819;BME280;49970;54.976;73.248;2023-06-04T10:50:33;100430.81;;;34.73;30.97
63819;BME280;49970;54.976;73.248;2023-06-04T10:52:59;100430.56;;;34.75;31.47
63819;BME280;49970;54.976;73.248;2023-06-04T10:55:32;100429.97;;;34.73;31.54
63819;BME280;49970;54.976;73.248;2023-06-04T10:58:01;100418.97;;;34.73;31.54
63819;BME280;49970;54.976;73.248;2023-06-04T11:00:38;100434.69;;;34.77;31.97
63819;BME280;49970;54.976;73.248;2023-06-04T11:03:09;100419.56;;;34.75;31.48
63819;BME280;49970;54.976;73.248;2023-06-04T11:05:40;100421.50;;;34.79;32.37
63819;BME280;49970;54.976;73.248;2023-06-04T11:08:08;100424.50;;;34.78;32.19
63819;BME280;49970;54.976;73.248;2023-06-04T11:10:38;100428.38;;;34.82;31.91
63819;BME280;49970;54.976;73.248;2023-06-04T11:13:05;100420.13;;;34.82;31.58
63819;BME280;49970;54.976;73.248;2023-06-04T11:18:13;100425.34;;;34.78;32.16
63819;BME280;49970;54.976;73.248;2023-06-04T11:20:39;100416.53;;;34.76;31.78
63819;BME280;49970;54.976;73.248;2023-06-04T11:23:05;100415.13;;;34.74;31.02
63819;BME280;49970;54.976;73.248;2023-06-04T11:25:33;100416.22;;;34.73;32.23
63819;BME280;49970;54.976;73.248;2023-06-04T11:28:00;100418.97;;;34.73;31.28
63819;BME280;49970;54.976;73.248;2023-06-04T11:30:27;100417.31;;;34.72;31.68
63819;BME280;49970;54.976;73.248;2023-06-04T11:33:04;100409.03;;;34.66;32.00
63819;BME280;49970;54.976;73.248;2023-06-04T11:35:38;100415.38;;;34.67;32.13
63819;BME280;49970;54.976;73.248;2023-06-04T11:38:05;100414.28;;;34.68;32.21
63819;BME280;49970;54.976;73.248;2023-06-04T11:40:31;100409.59;;;34.68;32.17
63819;BME280;49970;54.976;73.248;2023-06-04T11:42:58;100411.53;;;34.68;31.87
63819;BME280;49970;54.976;73.248;2023-06-04T11:45:27;100412.63;;;34.67;32.03
63819;BME280;49970;54.976;73.248;2023-06-04T11:47:56;100402.13;;;34.64;31.47
63819;BME280;49970;54.976;73.248;2023-06-04T11:50:26;100406.28;;;34.61;32.24
63819;BME280;49970;54.976;73.248;2023-06-04T11:52:53;100394.16;;;34.57;32.53
63819;BME280;49970;54.976;73.248;2023-06-04T11:55:20;100402.66;;;34.61;32.29
63819;BME280;49970;54.976;73.248;2023-06-04T11:57:48;100412.84;;;34.60;31.81
63819;BME280;49970;54.976;73.248;2023-06-04T12:00:15;100403.22;;;34.58;31.57
63819;BME280;49970;54.976;73.248;2023-06-04T12:02:53;100396.91;;;34.57;31.74
63819;BME280;49970;54.976;73.248;2023-06-04T12:05:20;100401.28;;;34.53;32.16
63819;BME280;49970;54.976;73.248;2023-06-04T12:07:50;100408.16;;;34.56;31.82
63819;BME280;49970;54.976;73.248;2023-06-04T12:10:20;100406.50;;;34.55;32.50
63819;BME280;49970;54.976;73.248;2023-06-04T12:12:53;100395.50;;;34.55;32.54
63819;BME280;49970;54.976;73.248;2023-06-04T12:15:20;100405.66;;;34.54;32.64
63819;BME280;49970;54.976;73.248;2023-06-04T12:17:56;100394.38;;;34.51;32.83
63819;BME280;49970;54.976;73.248;2023-06-04T12:20:40;100401.72;;;34.45;32.34
63819;BME280;49970;54.976;73.248;2023-06-04T12:23:20;100406.13;;;34.46;32.70
63819;BME280;49970;54.976;73.248;2023-06-04T12:26:06;100401.72;;;34.45;32.73
63819;BME280;49970;54.976;73.248;2023-06-04T12:30:05;100395.66;;;34.43;33.29
63819;BME280;49970;54.976;73.248;2023-06-04T12:32:35;100394.56;;;34.44;33.55
63819;BME280;49970;54.976;73.248;2023-06-04T12:35:02;100392.34;;;34.41;33.60
63819;BME280;49970;54.976;73.248;2023-06-04T12:37:28;100380.75;;;34.34;33.25
63819;BME280;49970;54.976;73.248;2023-06-04T12:39:57;100389.03;;;34.39;32.26
63819;BME280;49970;54.976;73.248;2023-06-04T12:42:24;100389.03;;;34.39;32.59
63819;BME280;49970;54.976;73.248;2023-06-04T12:44:50;100393.16;;;34.36;32.32
63819;BME280;49970;54.976;73.248;2023-06-04T12:47:17;100378.22;;;34.27;32.04
63819;BME280;49970;54.976;73.248;2023-06-04T12:49:45;100367.78;;;34.24;32.78
63819;BME280;49970;54.976;73.248;2023-06-04T12:52:11;100388.97;;;34.29;32.95
63819;BME280;49970;54.976;73.248;2023-06-04T12:54:42;100376.03;;;34.24;31.92
63819;BME280;49970;54.976;73.248;2023-06-04T12:57:09;100390.03;;;34.28;31.63
63819;BME280;49970;54.976;73.248;2023-06-04T12:59:37;100382.88;;;34.22;32.69
63819;BME280;49970;54.976;73.248;2023-06-04T13:02:03;100382.34;;;34.25;32.97
63819;BME280;49970;54.976;73.248;2023-06-04T13:04:29;100371.84;;;34.16;32.82
63819;BME280;49970;54.976;73.248;2023-06-04T13:07:15;100373.47;;;34.17;32.99
63819;BME280;49970;54.976;73.248;2023-06-04T13:10:26;100379.53;;;34.19;32.73
63819;BME280;49970;54.976;73.248;2023-06-04T13:12:53;100381.72;;;34.17;32.74
63819;BME280;49970;54.976;73.248;2023-06-04T13:15:19;100379.50;;;34.14;32.56
63819;BME280;49970;54.976;73.248;2023-06-04T13:17:45;100375.09;;;34.13;32.93
63819;BME280;49970;54.976;73.248;2023-06-04T13:20:12;100375.63;;;34.10;33.21
63819;BME280;49970;54.976;73.248;2023-06-04T13:22:38;100383.63;;;34.12;32.94
63819;BME280;49970;54.976;73.248;2023-06-04T13:25:06;100377.31;;;34.11;33.23
63819;BME280;49970;54.976;73.248;2023-06-04T13:27:32;100381.13;;;34.10;33.23